sensor_id;sensor_type;location;lat;lon;timestamp;P1;durP1;ratioP1;P2;durP2;ratioP2
23181;SDS011;11759;51.282;6.642;2022-12-20T00:00:50;9.07;;;3.10;;
23181;SDS011;11759;51.282;6.642;2022-12-20T00:03:16;8.38;;;3.20;;
23181;SDS011;11759;51.282;6.642;2022-12-20T00:05:43;8.63;;;2.72;;
23181;SDS011;11759;51.282;6.642;2022-12-20T00:08:10;8.07;;;3.28;;
23181;SDS011;11759;51.282;6.642;2022-12-20T00:10:37;5.00;;;2.60;;
23181;SDS011;11759;51.282;6.642;2022-12-20T00:13:05;7.13;;;2.88;;
23181;SDS011;11759;51.282;6.642;2022-12-20T00:15:31;8.05;;;2.95;;
23181;SDS011;11759;51.282;6.642;2022-12-20T00:17:58;7.72;;;2.95;;
23181;SDS011;11759;51.282;6.642;2022-12-20T00:20:25;8.90;;;2.75;;
23181;SDS011;11759;51.282;6.642;2022-12-20T00:22:52;6.45;;;2.85;;
23181;SDS011;11759;51.282;6.642;2022-12-20T00:25:19;10.10;;;3.00;;
23181;SDS011;11759;51.282;6.642;2022-12-20T00:27:48;9.10;;;2.70;;
23181;SDS011;11759;51.282;6.642;2022-12-20T00:30:16;7.05;;;2.88;;
23181;SDS011;11759;51.282;6.642;2022-12-20T00:32:42;8.50;;;2.40;;
23181;SDS011;11759;51.282;6.642;2022-12-20T00:35:10;5.90;;;3.03;;
23181;SDS011;11759;51.282;6.642;2022-12-20T00:37:37;5.03;;;2.33;;
23181;SDS011;11759;51.282;6.642;2022-12-20T00:40:04;8.35;;;2.55;;
23181;SDS011;11759;51.282;6.642;2022-12-20T00:42:31;7.97;;;2.75;;
23181;SDS011;11759;51.282;6.642;2022-12-20T00:44:58;6.05;;;2.40;;
23181;SDS011;11759;51.282;6.642;2022-12-20T00:47:25;4.85;;;2.28;;
23181;SDS011;11759;51.282;6.642;2022-12-20T00:49:51;3.63;;;2.10;;
23181;SDS011;11759;51.282;6.642;2022-12-20T00:52:18;6.93;;;2.50;;
23181;SDS011;11759;51.282;6.642;2022-12-20T00:54:44;6.10;;;2.05;;
23181;SDS011;11759;51.282;6.642;2022-12-20T00:57:11;4.55;;;2.05;;
23181;SDS011;11759;51.282;6.642;2022-12-20T00:59:38;9.77;;;2.65;;
23181;SDS011;11759;51.282;6.642;2022-12-20T01:02:04;6.05;;;2.70;;
23181;SDS011;11759;51.282;6.642;2022-12-20T01:04:31;6.00;;;2.20;;
23181;SDS011;11759;51.282;6.642;2022-12-20T01:06:58;4.68;;;1.95;;
23181;SDS011;11759;51.282;6.642;2022-12-20T01:09:24;4.72;;;2.45;;
23181;SDS011;11759;51.282;6.642;2022-12-20T01:11:51;4.32;;;2.15;;
23181;SDS011;11759;51.282;6.642;2022-12-20T01:14:17;3.00;;;1.92;;
23181;SDS011;11759;51.282;6.642;2022-12-20T01:16:45;4.47;;;2.47;;
23181;SDS011;11759;51.282;6.642;2022-12-20T01:19:14;6.63;;;2.10;;
23181;SDS011;11759;51.282;6.642;2022-12-20T01:21:42;6.10;;;1.92;;
23181;SDS011;11759;51.282;6.642;2022-12-20T01:24:15;5.28;;;1.95;;
23181;SDS011;11759;51.282;6.642;2022-12-20T01:26:43;8.27;;;1.95;;
23181;SDS011;11759;51.282;6.642;2022-12-20T01:29:11;8.32;;;2.45;;
23181;SDS011;11759;51.282;6.642;2022-12-20T01:31:40;5.93;;;2.08;;
23181;SDS011;11759;51.282;6.642;2022-12-20T01:34:08;6.55;;;2.20;;
23181;SDS011;11759;51.282;6.642;2022-12-20T01:36:35;5.05;;;2.13;;
23181;SDS011;11759;51.282;6.642;2022-12-20T01:39:10;4.82;;;1.90;;
23181;SDS011;11759;51.282;6.642;2022-12-20T01:41:40;6.45;;;2.25;;
23181;SDS011;11759;51.282;6.642;2022-12-20T01:46:43;4.63;;;1.98;;
23181;SDS011;11759;51.282;6.642;2022-12-20T01:49:13;4.88;;;2.22;;
23181;SDS011;11759;51.282;6.642;2022-12-20T01:51:45;3.58;;;1.92;;
23181;SDS011;11759;51.282;6.642;2022-12-20T01:54:18;3.33;;;1.98;;
23181;SDS011;11759;51.282;6.642;2022-12-20T01:57:04;5.38;;;2.17;;
23181;SDS011;11759;51.282;6.642;2022-12-20T01:59:34;5.47;;;1.88;;
23181;SDS011;11759;51.282;6.642;2022-12-20T02:02:04;6.25;;;2.20;;
23181;SDS011;11759;51.282;6.642;2022-12-20T02:04:34;4.63;;;2.13;;
23181;SDS011;11759;51.282;6.642;2022-12-20T02:07:00;4.13;;;2.20;;
23181;SDS011;11759;51.282;6.642;2022-12-20T02:09:29;8.35;;;2.22;;
23181;SDS011;11759;51.282;6.642;2022-12-20T02:14:47;8.65;;;2.13;;
23181;SDS011;11759;51.282;6.642;2022-12-20T02:17:47;5.57;;;2.10;;
23181;SDS011;11759;51.282;6.642;2022-12-20T02:28:52;9.48;;;1.90;;
23181;SDS011;11759;51.282;6.642;2022-12-20T02:31:57;5.18;;;2.10;;
23181;SDS011;11759;51.282;6.642;2022-12-20T02:34:41;4.80;;;2.13;;
23181;SDS011;11759;51.282;6.642;2022-12-20T02:37:09;11.10;;;2.20;;
23181;SDS011;11759;51.282;6.642;2022-12-20T02:39:36;5.28;;;1.88;;
23181;SDS011;11759;51.282;6.642;2022-12-20T02:42:21;4.07;;;2.20;;
23181;SDS011;11759;51.282;6.642;2022-12-20T02:44:51;3.97;;;2.30;;
23181;SDS011;11759;51.282;6.642;2022-12-20T02:47:51;5.40;;;2.03;;
23181;SDS011;11759;51.282;6.642;2022-12-20T02:50:36;4.15;;;2.08;;
23181;SDS011;11759;51.282;6.642;2022-12-20T02:53:04;3.22;;;2.15;;
23181;SDS011;11759;51.282;6.642;2022-12-20T02:55:40;4.20;;;1.98;;
23181;SDS011;11759;51.282;6.642;2022-12-20T02:58:17;4.65;;;2.40;;
23181;SDS011;11759;51.282;6.642;2022-12-20T03:00:48;7.88;;;2.28;;
23181;SDS011;11759;51.282;6.642;2022-12-20T03:03:16;4.35;;;2.78;;
23181;SDS011;11759;51.282;6.642;2022-12-20T03:05:51;4.95;;;2.95;;
23181;SDS011;11759;51.282;6.642;2022-12-20T03:08:21;5.72;;;3.03;;
23181;SDS011;11759;51.282;6.642;2022-12-20T03:10:49;8.32;;;3.55;;
23181;SDS011;11759;51.282;6.642;2022-12-20T03:13:17;11.30;;;3.88;;
23181;SDS011;11759;51.282;6.642;2022-12-20T03:15:49;8.20;;;3.72;;
23181;SDS011;11759;51.282;6.642;2022-12-20T03:18:16;9.10;;;3.78;;
23181;SDS011;11759;51.282;6.642;2022-12-20T03:20:42;6.72;;;3.55;;
23181;SDS011;11759;51.282;6.642;2022-12-20T03:23:09;11.95;;;4.20;;
23181;SDS011;11759;51.282;6.642;2022-12-20T03:25:36;10.30;;;4.80;;
23181;SDS011;11759;51.282;6.642;2022-12-20T03:28:03;13.10;;;6.30;;
23181;SDS011;11759;51.282;6.642;2022-12-20T03:30:30;15.80;;;6.82;;
23181;SDS011;11759;51.282;6.642;2022-12-20T03:32:57;12.77;;;7.00;;
23181;SDS011;11759;51.282;6.642;2022-12-20T03:35:24;13.55;;;7.25;;
23181;SDS011;11759;51.282;6.642;2022-12-20T03:37:50;16.75;;;9.35;;
23181;SDS011;11759;51.282;6.642;2022-12-20T03:40:17;23.70;;;12.43;;
23181;SDS011;11759;51.282;6.642;2022-12-20T03:42:44;32.15;;;18.52;;
23181;SDS011;11759;51.282;6.642;2022-12-20T03:45:10;34.55;;;21.58;;
23181;SDS011;11759;51.282;6.642;2022-12-20T03:47:37;37.33;;;19.70;;
23181;SDS011;11759;51.282;6.642;2022-12-20T03:50:05;41.28;;;20.77;;
23181;SDS011;11759;51.282;6.642;2022-12-20T03:52:33;25.67;;;14.13;;
23181;SDS011;11759;51.282;6.642;2022-12-20T03:55:00;25.05;;;14.43;;
23181;SDS011;11759;51.282;6.642;2022-12-20T03:57:37;32.38;;;14.63;;
23181;SDS011;11759;51.282;6.642;2022-12-20T04:00:14;28.27;;;14.82;;
23181;SDS011;11759;51.282;6.642;2022-12-20T04:02:44;26.30;;;12.73;;
23181;SDS011;11759;51.282;6.642;2022-12-20T04:05:11;26.63;;;13.75;;
23181;SDS011;11759;51.282;6.642;2022-12-20T04:07:38;24.45;;;13.50;;
23181;SDS011;11759;51.282;6.642;2022-12-20T04:10:05;24.50;;;13.48;;
23181;SDS011;11759;51.282;6.642;2022-12-20T04:12:33;28.13;;;15.38;;
23181;SDS011;11759;51.282;6.642;2022-12-20T04:15:01;29.98;;;17.08;;
23181;SDS011;11759;51.282;6.642;2022-12-20T04:17:28;33.85;;;19.23;;
23181;SDS011;11759;51.282;6.642;2022-12-20T04:19:55;38.67;;;23.42;;
23181;SDS011;11759;51.282;6.642;2022-12-20T04:22:21;47.42;;;26.98;;
23181;SDS011;11759;51.282;6.642;2022-12-20T04:24:58;42.35;;;24.52;;
23181;SDS011;11759;51.282;6.642;2022-12-20T04:27:30;38.13;;;21.23;;
23181;SDS011;11759;51.282;6.642;2022-12-20T04:29:56;35.83;;;19.92;;
23181;SDS011;11759;51.282;6.642;2022-12-20T04:32:23;37.30;;;17.77;;
23181;SDS011;11759;51.282;6.642;2022-12-20T04:34:50;40.00;;;19.23;;
23181;SDS011;11759;51.282;6.642;2022-12-20T04:37:18;25.05;;;15.05;;
23181;SDS011;11759;51.282;6.642;2022-12-20T04:39:49;29.15;;;14.57;;
23181;SDS011;11759;51.282;6.642;2022-12-20T04:42:22;24.52;;;14.30;;
23181;SDS011;11759;51.282;6.642;2022-12-20T04:44:51;25.95;;;15.93;;
23181;SDS011;11759;51.282;6.642;2022-12-20T04:47:22;29.42;;;16.95;;
23181;SDS011;11759;51.282;6.642;2022-12-20T04:49:50;36.08;;;18.83;;
23181;SDS011;11759;51.282;6.642;2022-12-20T04:52:17;38.70;;;18.23;;
23181;SDS011;11759;51.282;6.642;2022-12-20T04:55:08;41.38;;;19.33;;
23181;SDS011;11759;51.282;6.642;2022-12-20T04:57:35;40.40;;;19.67;;
23181;SDS011;11759;51.282;6.642;2022-12-20T05:00:04;47.20;;;24.30;;
23181;SDS011;11759;51.282;6.642;2022-12-20T05:02:32;55.10;;;24.15;;
23181;SDS011;11759;51.282;6.642;2022-12-20T05:05:04;45.08;;;23.75;;
23181;SDS011;11759;51.282;6.642;2022-12-20T05:07:37;48.15;;;22.63;;
23181;SDS011;11759;51.282;6.642;2022-12-20T05:10:04;36.35;;;17.70;;
23181;SDS011;11759;51.282;6.642;2022-12-20T05:12:31;37.13;;;15.15;;
23181;SDS011;11759;51.282;6.642;2022-12-20T05:15:00;26.05;;;13.45;;
23181;SDS011;11759;51.282;6.642;2022-12-20T05:17:27;27.48;;;12.77;;
23181;SDS011;11759;51.282;6.642;2022-12-20T05:19:54;28.63;;;13.15;;
23181;SDS011;11759;51.282;6.642;2022-12-20T05:22:21;27.73;;;13.68;;
23181;SDS011;11759;51.282;6.642;2022-12-20T05:25:09;27.60;;;14.55;;
23181;SDS011;11759;51.282;6.642;2022-12-20T05:27:59;29.65;;;13.20;;
23181;SDS011;11759;51.282;6.642;2022-12-20T05:30:29;21.52;;;12.70;;
23181;SDS011;11759;51.282;6.642;2022-12-20T05:32:56;31.65;;;13.80;;
23181;SDS011;11759;51.282;6.642;2022-12-20T05:35:23;34.25;;;13.55;;
23181;SDS011;11759;51.282;6.642;2022-12-20T05:37:56;31.42;;;13.82;;
23181;SDS011;11759;51.282;6.642;2022-12-20T05:40:22;30.38;;;14.52;;
23181;SDS011;11759;51.282;6.642;2022-12-20T05:42:49;29.45;;;14.18;;
23181;SDS011;11759;51.282;6.642;2022-12-20T05:45:17;32.08;;;15.18;;
23181;SDS011;11759;51.282;6.642;2022-12-20T05:47:50;39.42;;;15.48;;
23181;SDS011;11759;51.282;6.642;2022-12-20T05:50:17;44.90;;;15.75;;
23181;SDS011;11759;51.282;6.642;2022-12-20T05:53:03;44.75;;;17.85;;
23181;SDS011;11759;51.282;6.642;2022-12-20T05:55:44;38.50;;;20.30;;
23181;SDS011;11759;51.282;6.642;2022-12-20T05:58:13;39.83;;;20.95;;
23181;SDS011;11759;51.282;6.642;2022-12-20T06:00:50;43.42;;;21.95;;
23181;SDS011;11759;51.282;6.642;2022-12-20T06:03:17;44.90;;;23.85;;
23181;SDS011;11759;51.282;6.642;2022-12-20T06:05:44;52.05;;;23.80;;
23181;SDS011;11759;51.282;6.642;2022-12-20T06:08:16;39.17;;;22.10;;
23181;SDS011;11759;51.282;6.642;2022-12-20T06:10:43;39.42;;;19.90;;
23181;SDS011;11759;51.282;6.642;2022-12-20T06:13:12;38.28;;;19.27;;
23181;SDS011;11759;51.282;6.642;2022-12-20T06:15:40;36.47;;;18.00;;
23181;SDS011;11759;51.282;6.642;2022-12-20T06:18:06;41.00;;;17.13;;
23181;SDS011;11759;51.282;6.642;2022-12-20T06:20:33;30.20;;;16.35;;
23181;SDS011;11759;51.282;6.642;2022-12-20T06:23:02;25.60;;;14.18;;
23181;SDS011;11759;51.282;6.642;2022-12-20T06:25:34;33.15;;;15.32;;
23181;SDS011;11759;51.282;6.642;2022-12-20T06:28:02;31.17;;;15.10;;
23181;SDS011;11759;51.282;6.642;2022-12-20T06:30:29;26.13;;;15.00;;
23181;SDS011;11759;51.282;6.642;2022-12-20T06:33:17;29.70;;;14.93;;
23181;SDS011;11759;51.282;6.642;2022-12-20T06:35:43;31.45;;;16.85;;
23181;SDS011;11759;51.282;6.642;2022-12-20T06:38:10;31.58;;;17.15;;
23181;SDS011;11759;51.282;6.642;2022-12-20T06:40:37;42.03;;;19.27;;
23181;SDS011;11759;51.282;6.642;2022-12-20T06:43:05;41.95;;;20.88;;
23181;SDS011;11759;51.282;6.642;2022-12-20T06:45:32;40.90;;;21.85;;
23181;SDS011;11759;51.282;6.642;2022-12-20T06:48:07;42.85;;;23.23;;
23181;SDS011;11759;51.282;6.642;2022-12-20T06:50:34;38.03;;;22.05;;
23181;SDS011;11759;51.282;6.642;2022-12-20T06:53:01;36.17;;;21.30;;
23181;SDS011;11759;51.282;6.642;2022-12-20T06:55:28;41.70;;;21.10;;
23181;SDS011;11759;51.282;6.642;2022-12-20T06:57:54;38.10;;;20.20;;
23181;SDS011;11759;51.282;6.642;2022-12-20T07:00:21;31.27;;;19.25;;
23181;SDS011;11759;51.282;6.642;2022-12-20T07:02:48;27.23;;;16.50;;
23181;SDS011;11759;51.282;6.642;2022-12-20T07:05:15;27.85;;;14.52;;
23181;SDS011;11759;51.282;6.642;2022-12-20T07:07:41;31.58;;;14.85;;
23181;SDS011;11759;51.282;6.642;2022-12-20T07:10:11;32.08;;;14.10;;
23181;SDS011;11759;51.282;6.642;2022-12-20T07:12:38;25.15;;;12.23;;
23181;SDS011;11759;51.282;6.642;2022-12-20T07:15:12;23.48;;;12.23;;
23181;SDS011;11759;51.282;6.642;2022-12-20T07:17:39;21.10;;;10.48;;
23181;SDS011;11759;51.282;6.642;2022-12-20T07:20:05;19.23;;;10.10;;
23181;SDS011;11759;51.282;6.642;2022-12-20T07:22:39;21.33;;;11.52;;
23181;SDS011;11759;51.282;6.642;2022-12-20T07:25:05;20.38;;;10.65;;
23181;SDS011;11759;51.282;6.642;2022-12-20T07:27:32;19.27;;;12.25;;
23181;SDS011;11759;51.282;6.642;2022-12-20T07:29:58;22.60;;;11.30;;
23181;SDS011;11759;51.282;6.642;2022-12-20T07:32:25;22.90;;;11.73;;
23181;SDS011;11759;51.282;6.642;2022-12-20T07:34:52;20.40;;;10.75;;
23181;SDS011;11759;51.282;6.642;2022-12-20T07:37:19;19.75;;;10.85;;
23181;SDS011;11759;51.282;6.642;2022-12-20T07:39:45;22.35;;;9.02;;
23181;SDS011;11759;51.282;6.642;2022-12-20T07:42:12;16.33;;;8.93;;
23181;SDS011;11759;51.282;6.642;2022-12-20T07:44:41;13.85;;;7.60;;
23181;SDS011;11759;51.282;6.642;2022-12-20T07:47:08;15.27;;;7.43;;
23181;SDS011;11759;51.282;6.642;2022-12-20T07:49:35;12.95;;;7.78;;
23181;SDS011;11759;51.282;6.642;2022-12-20T07:52:02;14.25;;;7.78;;
23181;SDS011;11759;51.282;6.642;2022-12-20T07:54:30;13.23;;;7.35;;
23181;SDS011;11759;51.282;6.642;2022-12-20T07:57:00;12.35;;;6.30;;
23181;SDS011;11759;51.282;6.642;2022-12-20T07:59:33;16.42;;;7.05;;
23181;SDS011;11759;51.282;6.642;2022-12-20T08:02:02;16.40;;;6.10;;
23181;SDS011;11759;51.282;6.642;2022-12-20T08:04:30;11.93;;;6.55;;
23181;SDS011;11759;51.282;6.642;2022-12-20T08:06:58;11.73;;;6.10;;
23181;SDS011;11759;51.282;6.642;2022-12-20T08:09:30;10.25;;;5.30;;
23181;SDS011;11759;51.282;6.642;2022-12-20T08:11:59;12.45;;;5.68;;
23181;SDS011;11759;51.282;6.642;2022-12-20T08:14:26;10.32;;;5.93;;
23181;SDS011;11759;51.282;6.642;2022-12-20T08:16:52;11.68;;;5.75;;
23181;SDS011;11759;51.282;6.642;2022-12-20T08:19:19;9.45;;;5.38;;
23181;SDS011;11759;51.282;6.642;2022-12-20T08:21:49;14.77;;;6.18;;
23181;SDS011;11759;51.282;6.642;2022-12-20T08:24:16;11.13;;;6.13;;
23181;SDS011;11759;51.282;6.642;2022-12-20T08:26:42;11.45;;;5.53;;
23181;SDS011;11759;51.282;6.642;2022-12-20T08:29:09;13.20;;;6.53;;
23181;SDS011;11759;51.282;6.642;2022-12-20T08:31:37;11.38;;;7.47;;
23181;SDS011;11759;51.282;6.642;2022-12-20T08:34:11;13.30;;;7.75;;
23181;SDS011;11759;51.282;6.642;2022-12-20T08:36:37;20.98;;;8.52;;
23181;SDS011;11759;51.282;6.642;2022-12-20T08:39:04;11.35;;;6.30;;
23181;SDS011;11759;51.282;6.642;2022-12-20T08:41:33;12.73;;;7.15;;
23181;SDS011;11759;51.282;6.642;2022-12-20T08:44:00;15.70;;;6.88;;
23181;SDS011;11759;51.282;6.642;2022-12-20T08:46:26;10.30;;;5.72;;
23181;SDS011;11759;51.282;6.642;2022-12-20T08:48:53;14.13;;;6.10;;
23181;SDS011;11759;51.282;6.642;2022-12-20T08:51:20;12.70;;;6.28;;
23181;SDS011;11759;51.282;6.642;2022-12-20T08:53:47;9.23;;;5.78;;
23181;SDS011;11759;51.282;6.642;2022-12-20T08:56:14;9.48;;;5.32;;
23181;SDS011;11759;51.282;6.642;2022-12-20T08:58:42;13.70;;;5.70;;
23181;SDS011;11759;51.282;6.642;2022-12-20T09:01:10;9.95;;;4.93;;
23181;SDS011;11759;51.282;6.642;2022-12-20T09:03:39;13.45;;;5.25;;
23181;SDS011;11759;51.282;6.642;2022-12-20T09:06:08;8.00;;;4.80;;
23181;SDS011;11759;51.282;6.642;2022-12-20T09:08:39;11.23;;;4.45;;
23181;SDS011;11759;51.282;6.642;2022-12-20T09:11:39;8.20;;;5.22;;
23181;SDS011;11759;51.282;6.642;2022-12-20T09:13:59;9.68;;;4.88;;
23181;SDS011;11759;51.282;6.642;2022-12-20T09:16:27;6.22;;;4.32;;
23181;SDS011;11759;51.282;6.642;2022-12-20T09:18:56;12.93;;;4.88;;
23181;SDS011;11759;51.282;6.642;2022-12-20T09:21:30;8.55;;;4.10;;
23181;SDS011;11759;51.282;6.642;2022-12-20T09:23:57;7.90;;;4.47;;
23181;SDS011;11759;51.282;6.642;2022-12-20T09:26:24;7.05;;;4.78;;
23181;SDS011;11759;51.282;6.642;2022-12-20T09:28:52;9.10;;;4.68;;
23181;SDS011;11759;51.282;6.642;2022-12-20T09:31:20;8.18;;;4.57;;
23181;SDS011;11759;51.282;6.642;2022-12-20T09:33:47;9.30;;;4.55;;
23181;SDS011;11759;51.282;6.642;2022-12-20T09:36:15;9.90;;;5.07;;
23181;SDS011;11759;51.282;6.642;2022-12-20T09:38:44;11.77;;;5.53;;
23181;SDS011;11759;51.282;6.642;2022-12-20T09:41:18;11.63;;;5.60;;
23181;SDS011;11759;51.282;6.642;2022-12-20T09:43:48;8.55;;;5.32;;
23181;SDS011;11759;51.282;6.642;2022-12-20T09:46:15;6.78;;;5.32;;
23181;SDS011;11759;51.282;6.642;2022-12-20T09:48:42;12.70;;;6.20;;
23181;SDS011;11759;51.282;6.642;2022-12-20T09:56:55;13.75;;;5.88;;
23181;SDS011;11759;51.282;6.642;2022-12-20T09:59:25;12.20;;;5.22;;
23181;SDS011;11759;51.282;6.642;2022-12-20T10:01:52;13.43;;;7.03;;
23181;SDS011;11759;51.282;6.642;2022-12-20T10:09:51;16.70;;;6.60;;
23181;SDS011;11759;51.282;6.642;2022-12-20T10:22:58;13.13;;;5.32;;
23181;SDS011;11759;51.282;6.642;2022-12-20T10:25:30;10.95;;;5.10;;
23181;SDS011;11759;51.282;6.642;2022-12-20T10:28:02;13.35;;;5.57;;
23181;SDS011;11759;51.282;6.642;2022-12-20T10:30:31;13.48;;;5.63;;
23181;SDS011;11759;51.282;6.642;2022-12-20T10:32:58;11.93;;;6.10;;
23181;SDS011;11759;51.282;6.642;2022-12-20T10:35:26;9.40;;;5.07;;
23181;SDS011;11759;51.282;6.642;2022-12-20T10:41:10;10.63;;;5.18;;
23181;SDS011;11759;51.282;6.642;2022-12-20T10:43:57;10.65;;;5.82;;
23181;SDS011;11759;51.282;6.642;2022-12-20T10:46:39;10.00;;;5.38;;
23181;SDS011;11759;51.282;6.642;2022-12-20T10:49:21;11.82;;;5.47;;
23181;SDS011;11759;51.282;6.642;2022-12-20T10:57:12;10.07;;;5.47;;
23181;SDS011;11759;51.282;6.642;2022-12-20T11:00:01;12.30;;;4.72;;
23181;SDS011;11759;51.282;6.642;2022-12-20T11:07:36;8.73;;;4.10;;
23181;SDS011;11759;51.282;6.642;2022-12-20T11:10:22;8.52;;;4.18;;
23181;SDS011;11759;51.282;6.642;2022-12-20T11:15:25;9.18;;;4.10;;
23181;SDS011;11759;51.282;6.642;2022-12-20T11:18:14;11.73;;;4.60;;
23181;SDS011;11759;51.282;6.642;2022-12-20T11:26:35;8.05;;;4.43;;
23181;SDS011;11759;51.282;6.642;2022-12-20T11:29:23;8.02;;;3.60;;
23181;SDS011;11759;51.282;6.642;2022-12-20T11:35:12;9.88;;;4.28;;
23181;SDS011;11759;51.282;6.642;2022-12-20T11:37:58;7.97;;;4.00;;
23181;SDS011;11759;51.282;6.642;2022-12-20T11:40:36;9.48;;;4.28;;
23181;SDS011;11759;51.282;6.642;2022-12-20T11:49:22;11.95;;;4.18;;
23181;SDS011;11759;51.282;6.642;2022-12-20T11:52:31;9.27;;;3.95;;
23181;SDS011;11759;51.282;6.642;2022-12-20T11:57:45;8.52;;;3.60;;
23181;SDS011;11759;51.282;6.642;2022-12-20T12:00:37;7.90;;;3.35;;
23181;SDS011;11759;51.282;6.642;2022-12-20T12:03:13;11.18;;;3.92;;
23181;SDS011;11759;51.282;6.642;2022-12-20T12:11:52;9.45;;;3.42;;
23181;SDS011;11759;51.282;6.642;2022-12-20T12:14:37;10.00;;;3.17;;
23181;SDS011;11759;51.282;6.642;2022-12-20T12:17:34;7.60;;;3.08;;
23181;SDS011;11759;51.282;6.642;2022-12-20T12:20:07;6.97;;;3.05;;
23181;SDS011;11759;51.282;6.642;2022-12-20T12:22:45;6.43;;;3.22;;
23181;SDS011;11759;51.282;6.642;2022-12-20T12:25:15;12.15;;;2.90;;
23181;SDS011;11759;51.282;6.642;2022-12-20T12:27:42;5.47;;;2.55;;
23181;SDS011;11759;51.282;6.642;2022-12-20T12:30:13;8.80;;;3.20;;
23181;SDS011;11759;51.282;6.642;2022-12-20T12:32:48;6.13;;;3.20;;
23181;SDS011;11759;51.282;6.642;2022-12-20T12:38:29;10.27;;;2.60;;
23181;SDS011;11759;51.282;6.642;2022-12-20T12:41:33;9.57;;;2.35;;
23181;SDS011;11759;51.282;6.642;2022-12-20T12:46:46;7.90;;;2.50;;
23181;SDS011;11759;51.282;6.642;2022-12-20T12:49:17;8.00;;;3.22;;
23181;SDS011;11759;51.282;6.642;2022-12-20T12:51:48;4.18;;;2.35;;
23181;SDS011;11759;51.282;6.642;2022-12-20T12:54:18;7.53;;;2.90;;
23181;SDS011;11759;51.282;6.642;2022-12-20T12:56:48;9.13;;;3.00;;
23181;SDS011;11759;51.282;6.642;2022-12-20T13:05:29;8.43;;;2.95;;
23181;SDS011;11759;51.282;6.642;2022-12-20T13:09:59;6.43;;;2.80;;
23181;SDS011;11759;51.282;6.642;2022-12-20T13:15:10;6.65;;;3.13;;
23181;SDS011;11759;51.282;6.642;2022-12-20T13:20:32;7.88;;;3.35;;
23181;SDS011;11759;51.282;6.642;2022-12-20T13:25:38;13.10;;;4.20;;
23181;SDS011;11759;51.282;6.642;2022-12-20T13:28:49;15.15;;;3.78;;
23181;SDS011;11759;51.282;6.642;2022-12-20T13:33:43;13.73;;;3.80;;
23181;SDS011;11759;51.282;6.642;2022-12-20T13:41:25;9.43;;;4.50;;
23181;SDS011;11759;51.282;6.642;2022-12-20T13:49:28;11.82;;;4.25;;
23181;SDS011;11759;51.282;6.642;2022-12-20T13:54:39;13.63;;;4.22;;
23181;SDS011;11759;51.282;6.642;2022-12-20T13:57:07;15.90;;;4.40;;
23181;SDS011;11759;51.282;6.642;2022-12-20T13:59:36;12.85;;;4.18;;
23181;SDS011;11759;51.282;6.642;2022-12-20T14:02:03;11.55;;;4.40;;
23181;SDS011;11759;51.282;6.642;2022-12-20T14:04:41;26.40;;;4.93;;
23181;SDS011;11759;51.282;6.642;2022-12-20T14:07:12;10.07;;;4.93;;
23181;SDS011;11759;51.282;6.642;2022-12-20T14:09:42;15.88;;;4.47;;
23181;SDS011;11759;51.282;6.642;2022-12-20T14:12:11;12.13;;;4.35;;
23181;SDS011;11759;51.282;6.642;2022-12-20T14:14:47;12.07;;;5.05;;
23181;SDS011;11759;51.282;6.642;2022-12-20T14:17:28;18.05;;;4.93;;
23181;SDS011;11759;51.282;6.642;2022-12-20T14:22:32;22.23;;;5.50;;
23181;SDS011;11759;51.282;6.642;2022-12-20T14:24:59;28.23;;;5.97;;
23181;SDS011;11759;51.282;6.642;2022-12-20T14:27:28;24.20;;;6.95;;
23181;SDS011;11759;51.282;6.642;2022-12-20T14:29:59;20.83;;;6.07;;
23181;SDS011;11759;51.282;6.642;2022-12-20T14:32:25;18.20;;;6.03;;
23181;SDS011;11759;51.282;6.642;2022-12-20T14:34:52;21.02;;;5.72;;
23181;SDS011;11759;51.282;6.642;2022-12-20T14:37:40;27.48;;;6.57;;
23181;SDS011;11759;51.282;6.642;2022-12-20T14:42:37;27.23;;;6.45;;
23181;SDS011;11759;51.282;6.642;2022-12-20T14:47:47;36.20;;;6.85;;
23181;SDS011;11759;51.282;6.642;2022-12-20T14:50:37;28.65;;;6.63;;
23181;SDS011;11759;51.282;6.642;2022-12-20T14:53:16;31.92;;;7.13;;
23181;SDS011;11759;51.282;6.642;2022-12-20T14:55:45;33.33;;;7.22;;
23181;SDS011;11759;51.282;6.642;2022-12-20T14:58:31;35.28;;;7.82;;
23181;SDS011;11759;51.282;6.642;2022-12-20T15:03:29;25.52;;;7.18;;
23181;SDS011;11759;51.282;6.642;2022-12-20T15:05:59;31.27;;;7.47;;
23181;SDS011;11759;51.282;6.642;2022-12-20T15:08:29;29.17;;;6.68;;
23181;SDS011;11759;51.282;6.642;2022-12-20T15:16:04;37.38;;;7.90;;
23181;SDS011;11759;51.282;6.642;2022-12-20T15:18:38;27.35;;;6.80;;
23181;SDS011;11759;51.282;6.642;2022-12-20T15:21:05;28.58;;;6.80;;
23181;SDS011;11759;51.282;6.642;2022-12-20T15:23:48;18.77;;;7.13;;
23181;SDS011;11759;51.282;6.642;2022-12-20T15:26:17;18.38;;;7.18;;
23181;SDS011;11759;51.282;6.642;2022-12-20T15:28:46;20.77;;;6.78;;
23181;SDS011;11759;51.282;6.642;2022-12-20T15:31:14;25.63;;;7.97;;
23181;SDS011;11759;51.282;6.642;2022-12-20T15:33:42;15.00;;;7.30;;
23181;SDS011;11759;51.282;6.642;2022-12-20T15:36:16;14.68;;;7.30;;
23181;SDS011;11759;51.282;6.642;2022-12-20T15:38:45;25.35;;;7.32;;
23181;SDS011;11759;51.282;6.642;2022-12-20T15:41:32;24.60;;;8.35;;
23181;SDS011;11759;51.282;6.642;2022-12-20T15:44:06;28.10;;;9.52;;
23181;SDS011;11759;51.282;6.642;2022-12-20T15:46:39;22.30;;;9.65;;
23181;SDS011;11759;51.282;6.642;2022-12-20T15:49:08;20.92;;;9.32;;
23181;SDS011;11759;51.282;6.642;2022-12-20T15:51:42;29.25;;;9.10;;
23181;SDS011;11759;51.282;6.642;2022-12-20T15:54:15;36.05;;;10.40;;
23181;SDS011;11759;51.282;6.642;2022-12-20T15:56:47;28.67;;;10.50;;
23181;SDS011;11759;51.282;6.642;2022-12-20T15:59:14;30.90;;;9.55;;
23181;SDS011;11759;51.282;6.642;2022-12-20T16:02:01;27.85;;;9.60;;
23181;SDS011;11759;51.282;6.642;2022-12-20T16:04:27;30.33;;;10.98;;
23181;SDS011;11759;51.282;6.642;2022-12-20T16:06:54;31.77;;;10.85;;
23181;SDS011;11759;51.282;6.642;2022-12-20T16:09:21;27.35;;;10.73;;
23181;SDS011;11759;51.282;6.642;2022-12-20T16:11:50;31.75;;;11.07;;
23181;SDS011;11759;51.282;6.642;2022-12-20T16:14:18;25.08;;;11.18;;
23181;SDS011;11759;51.282;6.642;2022-12-20T16:19:15;21.90;;;10.05;;
23181;SDS011;11759;51.282;6.642;2022-12-20T16:21:51;33.88;;;10.98;;
23181;SDS011;11759;51.282;6.642;2022-12-20T16:24:18;43.35;;;11.23;;
23181;SDS011;11759;51.282;6.642;2022-12-20T16:26:47;29.67;;;10.02;;
23181;SDS011;11759;51.282;6.642;2022-12-20T16:29:14;29.73;;;10.13;;
23181;SDS011;11759;51.282;6.642;2022-12-20T16:31:41;24.45;;;10.23;;
23181;SDS011;11759;51.282;6.642;2022-12-20T16:34:11;23.77;;;9.80;;
23181;SDS011;11759;51.282;6.642;2022-12-20T16:36:38;25.90;;;10.45;;
23181;SDS011;11759;51.282;6.642;2022-12-20T16:39:05;25.65;;;10.00;;
23181;SDS011;11759;51.282;6.642;2022-12-20T16:41:32;28.73;;;10.75;;
23181;SDS011;11759;51.282;6.642;2022-12-20T16:43:59;26.85;;;10.82;;
23181;SDS011;11759;51.282;6.642;2022-12-20T16:46:27;28.67;;;10.18;;
23181;SDS011;11759;51.282;6.642;2022-12-20T16:48:55;22.40;;;10.15;;
23181;SDS011;11759;51.282;6.642;2022-12-20T16:56:45;22.40;;;10.13;;
23181;SDS011;11759;51.282;6.642;2022-12-20T16:59:12;20.83;;;9.90;;
23181;SDS011;11759;51.282;6.642;2022-12-20T17:01:46;24.42;;;9.40;;
23181;SDS011;11759;51.282;6.642;2022-12-20T17:04:15;29.40;;;9.85;;
23181;SDS011;11759;51.282;6.642;2022-12-20T17:06:43;22.55;;;9.63;;
23181;SDS011;11759;51.282;6.642;2022-12-20T17:09:10;21.02;;;8.93;;
23181;SDS011;11759;51.282;6.642;2022-12-20T17:11:55;26.38;;;10.30;;